Duncan, South Carolina
Current Conditions -  °F | °C
As of 12:53 AM on Wednesday 28 Jan 2015 (Local Time) from KGSP Reporting Station
Clear Clear  
Wind Chill: 28°   Ceiling: Unl
Heat Index: 34°   Visibility: 10mi
Dew Point: 20°   Wind: 7mph
Humidity: 56%   Direction: 300°WNW
Pressure: 30.03"   Gusts: NA
Location:  34.94°N, 82.14°W
Report Text: KGSP 280553Z AUTO 30006KT 10SM CLR 01/M07 A3003 RMK AO2 SLP172 T00111067 10033 20006 51009
Loading
Personal Weather Stations






























Interactive Weather Map New forecast layout! Learn more

10-Day Weather Forecast

Advertisements
Track Severe Weather on mobile